createdAt,value
2019-04-29T00:01:45.334Z,26.12
2019-04-29T00:04:48.760Z,26.11
2019-04-29T00:07:52.255Z,26.12
2019-04-29T00:10:55.725Z,26.11
2019-04-29T00:13:59.302Z,26.12
2019-04-29T00:17:15.323Z,26.12
2019-04-29T00:20:25.415Z,26.11
2019-04-29T00:23:28.887Z,26.10
2019-04-29T00:26:32.299Z,26.09
2019-04-29T00:29:35.773Z,26.08
2019-04-29T00:32:39.287Z,26.10
2019-04-29T00:35:42.763Z,26.09
2019-04-29T00:39:12.256Z,26.09
2019-04-29T00:42:30.542Z,26.09
2019-04-29T00:45:34.549Z,26.08
2019-04-29T00:48:38.082Z,26.05
2019-04-29T00:51:41.557Z,26.06
2019-04-29T00:54:50.919Z,26.06
2019-04-29T00:57:54.470Z,26.06
2019-04-29T01:00:57.900Z,26.04
2019-04-29T01:04:01.414Z,26.04
2019-04-29T01:07:06.016Z,26.03
2019-04-29T01:10:10.626Z,26.06
2019-04-29T01:13:15.058Z,26.03
2019-04-29T01:16:18.584Z,26.03
2019-04-29T01:19:24.423Z,26.02
2019-04-29T01:22:28.197Z,26.03
2019-04-29T01:25:31.619Z,26.00
2019-04-29T01:28:41.550Z,26.01
2019-04-29T01:31:45.086Z,26.00
2019-04-29T01:34:55.923Z,26.00
2019-04-29T01:37:59.462Z,26.01
2019-04-29T01:41:09.109Z,26.02
2019-04-29T01:44:12.637Z,25.98
2019-04-29T01:47:16.117Z,25.97
2019-04-29T01:50:19.613Z,25.97
2019-04-29T01:53:23.027Z,25.99
2019-04-29T01:56:26.625Z,25.98
2019-04-29T01:59:31.121Z,25.96
2019-04-29T02:02:34.643Z,25.96
2019-04-29T02:05:38.139Z,25.97
2019-04-29T02:08:41.998Z,25.97
2019-04-29T02:11:46.404Z,25.94
2019-04-29T02:14:49.844Z,25.94
2019-04-29T02:17:53.267Z,25.93
2019-04-29T02:20:56.843Z,25.92
2019-04-29T02:24:14.566Z,25.92
2019-04-29T02:27:17.988Z,25.92
2019-04-29T02:30:40.126Z,25.90
2019-04-29T02:33:43.632Z,25.91
2019-04-29T02:36:47.055Z,25.91
2019-04-29T02:39:56.894Z,25.89
2019-04-29T02:43:06.030Z,25.90
2019-04-29T02:46:09.496Z,25.89
2019-04-29T02:49:13.029Z,25.90
2019-04-29T02:52:16.515Z,25.90
2019-04-29T02:55:26.356Z,25.89
2019-04-29T02:58:41.469Z,25.89
2019-04-29T03:01:52.402Z,25.91
2019-04-29T03:05:14.170Z,25.88
2019-04-29T03:08:17.671Z,25.85
2019-04-29T03:11:22.203Z,25.87
2019-04-29T03:14:25.672Z,25.84
2019-04-29T03:17:29.191Z,25.84
2019-04-29T03:20:46.110Z,25.84
2019-04-29T03:23:49.602Z,25.84
2019-04-29T03:26:53.086Z,25.83
2019-04-29T03:29:56.698Z,25.83
2019-04-29T03:33:02.248Z,25.85
2019-04-29T03:36:05.656Z,25.85
2019-04-29T03:39:09.134Z,25.83
2019-04-29T03:42:12.757Z,25.82
2019-04-29T03:45:16.257Z,25.79
2019-04-29T03:48:21.798Z,25.82
2019-04-29T03:51:26.323Z,25.81
2019-04-29T03:54:29.732Z,25.81
2019-04-29T03:57:36.670Z,25.80
2019-04-29T04:00:43.991Z,25.79
2019-04-29T04:03:54.221Z,25.77
2019-04-29T04:07:16.817Z,25.77
2019-04-29T04:10:20.323Z,25.74
2019-04-29T04:13:23.785Z,25.75
2019-04-29T04:16:49.450Z,25.74
2019-04-29T04:19:53.104Z,25.76
2019-04-29T04:22:56.659Z,25.74
2019-04-29T04:26:00.124Z,25.72
2019-04-29T04:29:03.656Z,25.70
2019-04-29T04:32:07.163Z,25.70
2019-04-29T04:35:11.659Z,25.71
2019-04-29T04:38:15.199Z,25.72
2019-04-29T04:41:19.727Z,25.70
2019-04-29T04:44:25.450Z,25.71
2019-04-29T04:47:28.873Z,25.68
2019-04-29T04:50:32.421Z,25.68
2019-04-29T04:53:35.926Z,25.67
2019-04-29T04:56:39.343Z,25.71
2019-04-29T04:59:42.942Z,25.71
2019-04-29T05:02:47.461Z,25.68
2019-04-29T05:05:50.998Z,25.69
2019-04-29T05:08:55.555Z,25.70
2019-04-29T05:11:58.999Z,25.68
2019-04-29T05:15:02.510Z,25.67
2019-04-29T05:18:06.012Z,25.68
2019-04-29T05:21:09.436Z,25.67
2019-04-29T05:24:12.905Z,25.65
2019-04-29T05:27:16.508Z,25.64
2019-04-29T05:30:20.006Z,25.65
2019-04-29T05:33:23.524Z,25.64
2019-04-29T05:36:38.128Z,25.66
2019-04-29T05:39:40.843Z,25.65
2019-04-29T05:42:44.388Z,25.62
2019-04-29T05:46:09.853Z,25.63
2019-04-29T05:49:15.820Z,25.63
2019-04-29T05:52:26.191Z,25.63
2019-04-29T05:55:29.623Z,25.64
2019-04-29T05:58:37.930Z,25.62
2019-04-29T06:01:42.833Z,25.61
2019-04-29T06:04:48.161Z,25.60
2019-04-29T06:07:51.618Z,25.58
2019-04-29T06:10:56.328Z,25.60
2019-04-29T06:14:01.845Z,25.61
2019-04-29T06:17:07.773Z,25.59
2019-04-29T06:20:13.085Z,25.57
2019-04-29T06:23:18.978Z,25.60
2019-04-29T06:26:22.202Z,25.60
2019-04-29T06:29:29.397Z,25.60
2019-04-29T06:32:32.807Z,25.59
2019-04-29T06:35:36.223Z,25.57
2019-04-29T06:38:39.721Z,25.56
2019-04-29T06:41:45.441Z,25.57
2019-04-29T06:44:50.506Z,25.57
2019-04-29T06:47:54.043Z,25.57
2019-04-29T06:50:57.467Z,25.57
2019-04-29T06:54:01.077Z,25.53
2019-04-29T06:57:06.963Z,25.50
2019-04-29T07:00:17.584Z,25.62
2019-04-29T07:03:20.888Z,25.68
2019-04-29T07:06:26.759Z,25.70
2019-04-29T07:09:31.899Z,25.71
2019-04-29T07:12:35.458Z,25.74
2019-04-29T07:15:39.232Z,25.75
2019-04-29T07:18:48.306Z,25.76
2019-04-29T07:21:51.388Z,25.75
2019-04-29T07:24:53.776Z,25.77
2019-04-29T07:27:57.482Z,25.78
2019-04-29T07:31:03.079Z,25.76
2019-04-29T07:34:08.540Z,25.77
2019-04-29T07:37:16.605Z,25.77
2019-04-29T07:40:22.108Z,25.77
2019-04-29T07:43:25.550Z,25.78
2019-04-29T07:46:56.307Z,25.78
2019-04-29T07:49:51.406Z,25.78
2019-04-29T07:52:55.553Z,25.78
2019-04-29T07:56:01.704Z,25.80
2019-04-29T07:59:04.627Z,25.80
2019-04-29T08:02:08.407Z,25.81
2019-04-29T08:05:11.832Z,25.81
2019-04-29T08:08:16.731Z,25.81
2019-04-29T08:11:20.700Z,25.81
2019-04-29T08:14:24.160Z,25.82
2019-04-29T08:17:27.642Z,25.83
2019-04-29T08:20:35.450Z,25.82
2019-04-29T08:23:41.112Z,25.84
2019-04-29T08:26:47.508Z,25.84
2019-04-29T08:29:51.094Z,25.85
2019-04-29T08:32:54.603Z,25.83
2019-04-29T08:35:58.089Z,25.84
2019-04-29T08:39:08.370Z,25.84
2019-04-29T08:42:10.146Z,25.83
2019-04-29T08:45:22.113Z,25.82
2019-04-29T08:48:26.598Z,25.83
2019-04-29T08:51:37.293Z,25.84
2019-04-29T08:54:40.543Z,25.86
2019-04-29T08:57:43.961Z,25.84
2019-04-29T09:00:47.386Z,25.85
2019-04-29T09:03:53.710Z,25.86
2019-04-29T09:06:57.023Z,25.86
2019-04-29T09:10:02.044Z,25.87
2019-04-29T09:13:05.664Z,25.89
2019-04-29T09:16:09.282Z,25.88
2019-04-29T09:19:12.699Z,25.90
2019-04-29T09:22:18.652Z,25.90
2019-04-29T09:25:35.467Z,25.89
2019-04-29T09:28:38.939Z,25.92
2019-04-29T09:31:43.357Z,25.92
2019-04-29T09:34:48.570Z,25.94
2019-04-29T09:37:53.853Z,25.97
2019-04-29T09:41:05.256Z,25.98
2019-04-29T09:44:35.324Z,26.00
2019-04-29T09:47:37.138Z,26.00
2019-04-29T09:50:41.000Z,26.00
2019-04-29T09:53:44.622Z,26.02
2019-04-29T09:56:48.175Z,26.04
2019-04-29T10:00:00.152Z,26.05
2019-04-29T10:03:11.517Z,26.03
2019-04-29T10:06:20.031Z,25.95
2019-04-29T10:09:23.645Z,25.96
2019-04-29T10:12:28.171Z,25.97
2019-04-29T10:15:42.358Z,25.95
2019-04-29T10:18:56.241Z,25.93
2019-04-29T10:21:59.692Z,25.88
2019-04-29T10:25:03.298Z,25.88
2019-04-29T10:28:06.847Z,25.87
2019-04-29T10:31:10.475Z,25.90
2019-04-29T10:34:14.252Z,25.94
2019-04-29T10:37:17.798Z,25.91
2019-04-29T10:40:37.467Z,25.91
2019-04-29T10:43:59.131Z,25.91
2019-04-29T10:47:29.019Z,25.95
2019-04-29T10:50:34.970Z,25.96
2019-04-29T10:53:39.511Z,25.96
2019-04-29T10:56:43.062Z,25.95
2019-04-29T10:59:50.294Z,25.95
2019-04-29T11:02:53.906Z,25.98
2019-04-29T11:06:01.822Z,25.98
2019-04-29T11:09:31.858Z,25.99
2019-04-29T11:12:35.343Z,25.97
2019-04-29T11:15:49.475Z,25.96
2019-04-29T11:18:55.023Z,25.98
2019-04-29T11:22:02.232Z,25.99
2019-04-29T11:25:27.522Z,25.97
2019-04-29T11:28:37.658Z,25.97
2019-04-29T11:31:41.537Z,25.96
2019-04-29T11:34:55.086Z,25.95
2019-04-29T11:37:59.966Z,25.94
2019-04-29T11:41:03.558Z,25.94
2019-04-29T11:44:08.130Z,25.93
2019-04-29T11:47:11.607Z,25.95
2019-04-29T11:50:31.504Z,25.92
2019-04-29T11:53:34.970Z,25.93
2019-04-29T11:56:39.714Z,25.95
2019-04-29T12:00:04.725Z,25.96
2019-04-29T12:03:14.539Z,25.95
2019-04-29T12:06:20.542Z,25.95
2019-04-29T12:09:25.561Z,25.93
2019-04-29T12:12:26.902Z,25.90
2019-04-29T12:15:50.285Z,25.94
2019-04-29T12:18:59.844Z,25.91
2019-04-29T12:22:04.759Z,25.92
2019-04-29T12:25:09.571Z,25.92
2019-04-29T12:28:19.376Z,25.94
2019-04-29T12:31:24.479Z,25.93
2019-04-29T12:34:41.625Z,25.95
2019-04-29T12:38:05.880Z,25.99
2019-04-29T12:41:21.139Z,25.94
2019-04-29T12:44:35.042Z,25.95
2019-04-29T12:47:35.023Z,25.95
2019-04-29T12:50:38.524Z,25.96
2019-04-29T12:53:44.739Z,25.94
2019-04-29T12:56:49.247Z,25.95
2019-04-29T12:59:54.552Z,25.94
2019-04-29T13:03:20.000Z,25.94
2019-04-29T13:06:42.523Z,25.94
2019-04-29T13:09:47.159Z,25.92
2019-04-29T13:12:51.061Z,25.93
2019-04-29T13:16:12.552Z,25.95
2019-04-29T13:19:20.995Z,25.93
2019-04-29T13:22:28.818Z,25.95
2019-04-29T13:25:34.771Z,25.97
2019-04-29T13:28:58.494Z,25.96
2019-04-29T13:31:44.352Z,25.96
2019-04-29T13:34:49.701Z,25.95
2019-04-29T13:37:54.187Z,25.94
2019-04-29T13:41:13.049Z,25.94
2019-04-29T13:44:07.652Z,25.95
2019-04-29T13:47:28.597Z,25.95
2019-04-29T13:50:39.441Z,25.95
2019-04-29T13:53:38.724Z,25.95
2019-04-29T13:56:55.423Z,25.95
2019-04-29T14:00:13.794Z,26.03
2019-04-29T14:03:22.086Z,25.96
2019-04-29T14:06:26.209Z,25.94
2019-04-29T14:09:29.823Z,25.92
2019-04-29T14:13:00.677Z,25.93
2019-04-29T14:15:40.468Z,25.93
2019-04-29T14:18:48.359Z,25.95
2019-04-29T14:21:50.188Z,25.95
2019-04-29T14:24:53.695Z,25.94
2019-04-29T14:27:57.181Z,25.91
2019-04-29T14:31:01.827Z,25.91
2019-04-29T14:34:12.383Z,25.91
2019-04-29T14:37:23.460Z,25.91
2019-04-29T14:40:23.049Z,25.93
2019-04-29T14:43:46.740Z,25.92
2019-04-29T14:47:01.067Z,25.93
2019-04-29T14:50:06.233Z,25.91
2019-04-29T14:53:19.608Z,25.93
2019-04-29T14:56:20.951Z,25.93
2019-04-29T14:59:24.747Z,25.92
2019-04-29T15:02:28.449Z,25.93
2019-04-29T15:05:33.123Z,25.92
2019-04-29T15:08:38.212Z,25.88
2019-04-29T15:11:50.485Z,25.90
2019-04-29T15:15:13.098Z,25.89
2019-04-29T15:18:54.832Z,25.90
2019-04-29T15:22:09.885Z,25.87
2019-04-29T15:25:16.654Z,25.87
2019-04-29T15:28:19.082Z,25.89
2019-04-29T15:31:23.226Z,25.87
2019-04-29T15:34:27.025Z,25.90
2019-04-29T15:37:37.381Z,25.92
2019-04-29T15:40:42.969Z,25.91
2019-04-29T15:43:48.039Z,25.90
2019-04-29T15:46:51.366Z,25.92
2019-04-29T15:49:55.934Z,25.92
2019-04-29T15:53:02.952Z,25.91
2019-04-29T15:56:18.927Z,25.91
2019-04-29T15:59:11.503Z,25.88
2019-04-29T16:02:14.998Z,25.91
2019-04-29T16:05:34.637Z,25.82
2019-04-29T16:08:48.729Z,25.75
2019-04-29T16:12:14.286Z,25.71
2019-04-29T16:15:20.356Z,25.73
2019-04-29T16:18:23.796Z,25.70
2019-04-29T16:21:32.189Z,25.69
2019-04-29T16:24:38.503Z,25.67
2019-04-29T16:27:48.876Z,25.65
2019-04-29T16:30:46.940Z,25.63
2019-04-29T16:33:54.654Z,25.63
2019-04-29T16:36:56.806Z,25.61
2019-04-29T16:40:01.209Z,25.61
2019-04-29T16:43:27.766Z,25.60
2019-04-29T16:46:37.238Z,25.59
2019-04-29T16:49:37.198Z,25.56
2019-04-29T16:52:44.410Z,25.60
2019-04-29T16:55:45.879Z,25.58
2019-04-29T16:58:49.369Z,25.57
2019-04-29T17:01:52.943Z,25.56
2019-04-29T17:04:56.552Z,25.54
2019-04-29T17:08:02.239Z,25.55
2019-04-29T17:11:17.597Z,25.52
2019-04-29T17:14:20.653Z,25.52
2019-04-29T17:17:29.192Z,25.47
2019-04-29T17:20:32.067Z,25.49
2019-04-29T17:23:36.617Z,25.47
2019-04-29T17:26:47.191Z,25.50
2019-04-29T17:30:09.164Z,25.50
2019-04-29T17:33:28.204Z,25.48
2019-04-29T17:36:25.867Z,25.47
2019-04-29T17:39:29.554Z,25.44
2019-04-29T17:42:34.702Z,25.42
2019-04-29T17:45:45.471Z,25.45
2019-04-29T17:49:02.099Z,25.45
2019-04-29T17:52:10.599Z,25.45
2019-04-29T17:55:40.865Z,25.44
2019-04-29T17:58:51.634Z,25.42
2019-04-29T18:02:20.757Z,25.42
2019-04-29T18:05:34.461Z,25.40
2019-04-29T18:08:51.436Z,25.39
2019-04-29T18:11:57.488Z,25.40
2019-04-29T18:15:00.636Z,25.39
2019-04-29T18:18:09.893Z,25.37
2019-04-29T18:21:30.454Z,25.38
2019-04-29T18:24:55.468Z,25.38
2019-04-29T18:28:00.301Z,25.40
2019-04-29T18:31:05.923Z,25.39
2019-04-29T18:34:09.435Z,25.36
2019-04-29T18:37:12.937Z,25.34
2019-04-29T18:40:16.457Z,25.38
2019-04-29T18:43:23.157Z,25.35
2019-04-29T18:46:25.909Z,25.34
2019-04-29T18:49:29.408Z,25.34
2019-04-29T18:52:35.956Z,25.34
2019-04-29T18:55:39.479Z,25.32
2019-04-29T18:58:46.833Z,25.34
2019-04-29T19:01:49.423Z,25.32
2019-04-29T19:05:01.023Z,25.30
2019-04-29T19:08:12.243Z,25.31
2019-04-29T19:11:11.929Z,25.36
2019-04-29T19:14:15.425Z,25.45
2019-04-29T19:17:21.565Z,25.46
2019-04-29T19:20:25.103Z,25.51
2019-04-29T19:23:29.706Z,25.51
2019-04-29T19:26:35.020Z,25.54
2019-04-29T19:29:45.494Z,25.52
2019-04-29T19:32:49.137Z,25.54
2019-04-29T19:35:52.609Z,25.57
2019-04-29T19:38:57.152Z,25.58
2019-04-29T19:42:01.707Z,25.60
2019-04-29T19:45:12.715Z,25.60
2019-04-29T19:48:10.937Z,25.62
2019-04-29T19:51:18.010Z,25.64
2019-04-29T19:54:24.602Z,25.63
2019-04-29T19:57:25.736Z,25.65
2019-04-29T20:00:38.315Z,25.68
2019-04-29T20:03:51.374Z,25.69
2019-04-29T20:07:05.629Z,25.70
2019-04-29T20:10:05.754Z,25.69
2019-04-29T20:13:08.502Z,25.70
2019-04-29T20:16:43.322Z,25.72
2019-04-29T20:19:55.191Z,25.73
2019-04-29T20:22:55.503Z,25.74
2019-04-29T20:26:12.848Z,25.76
2019-04-29T20:29:06.996Z,25.76
2019-04-29T20:32:09.598Z,25.76
2019-04-29T20:35:13.393Z,25.77
2019-04-29T20:38:18.803Z,25.78
2019-04-29T20:41:39.451Z,25.80
2019-04-29T20:44:28.788Z,25.81
2019-04-29T20:47:37.855Z,25.79
2019-04-29T20:50:40.577Z,25.78
2019-04-29T20:53:59.346Z,25.68
2019-04-29T20:57:06.045Z,25.66
2019-04-29T21:00:08.705Z,25.63
2019-04-29T21:03:12.603Z,25.63
2019-04-29T21:06:16.191Z,25.61
2019-04-29T21:09:22.027Z,25.61
2019-04-29T21:12:42.936Z,25.59
2019-04-29T21:15:53.237Z,25.57
2019-04-29T21:19:01.547Z,25.51
2019-04-29T21:22:05.271Z,25.51
2019-04-29T21:25:08.728Z,25.50
2019-04-29T21:28:12.314Z,25.48
2019-04-29T21:31:19.905Z,25.47
2019-04-29T21:34:25.337Z,25.47
2019-04-29T21:37:40.102Z,25.46
2019-04-29T21:40:46.498Z,25.45
2019-04-29T21:43:53.420Z,25.42
2019-04-29T21:46:59.603Z,25.43
2019-04-29T21:50:02.310Z,25.43
2019-04-29T21:53:06.125Z,25.41
2019-04-29T21:56:09.760Z,25.40
2019-04-29T21:59:13.198Z,25.40
2019-04-29T22:02:17.469Z,25.39
2019-04-29T22:05:21.230Z,25.36
2019-04-29T22:08:27.579Z,25.36
2019-04-29T22:11:30.070Z,25.36
2019-04-29T22:14:34.860Z,25.36
2019-04-29T22:17:39.522Z,25.35
2019-04-29T22:20:43.433Z,25.37
2019-04-29T22:23:51.224Z,25.35
2019-04-29T22:26:56.457Z,25.35
2019-04-29T22:29:57.450Z,25.32
2019-04-29T22:33:00.862Z,25.33
2019-04-29T22:36:05.308Z,25.31
2019-04-29T22:39:08.870Z,25.31
2019-04-29T22:42:18.575Z,25.32
2019-04-29T22:45:22.566Z,25.31
2019-04-29T22:48:25.987Z,25.30
2019-04-29T22:51:29.458Z,25.30
2019-04-29T22:54:33.075Z,25.27
2019-04-29T22:57:37.533Z,25.25
2019-04-29T23:00:41.169Z,25.28
2019-04-29T23:03:45.106Z,25.29
2019-04-29T23:06:49.793Z,25.30
2019-04-29T23:09:55.520Z,25.26
2019-04-29T23:13:00.374Z,25.26
2019-04-29T23:16:03.925Z,25.24
2019-04-29T23:19:09.908Z,25.23
2019-04-29T23:22:34.888Z,25.22
2019-04-29T23:25:42.956Z,25.24
2019-04-29T23:28:46.541Z,25.20
2019-04-29T23:31:50.069Z,25.21
2019-04-29T23:34:54.992Z,25.22
2019-04-29T23:38:04.386Z,25.19
2019-04-29T23:41:05.144Z,25.20
2019-04-29T23:44:09.374Z,25.20
2019-04-29T23:47:17.444Z,25.19
2019-04-29T23:50:20.291Z,25.19
2019-04-29T23:53:25.285Z,25.18
2019-04-29T23:56:32.109Z,25.18
2019-04-29T23:59:37.114Z,25.17
